William E. — WDC3317 — position and weather

sailwx.info

Track history (hours):
 
Tides and Currents Weather Stations Pressure Air Temp Water Temp Dewpoint Dewpoint Depression Visibility Wind Speed Wind Dir Waves Ship Positions

William E.

Owner: Donjon Marine Co., Inc., Hillside, NJ. More information available from US FCC via Universal Licensing System and Coast Guard Vessel Documentation Center.

Last reported at 2018-Feb-14 13:20 UTC. Time now 2018-Feb-25 10:12 UTC.
Position N 41°13' W 072°45'.
Warning: this ship's position is 10 days out of date.

Type: Tug. MMSI: 367005710.

Date/timePositionNaut miles runAvg speedWind from/ knotsBaromVisibWave heightAir tempDewpointWater temp
2018-Feb-14 13:20N 41°13' W 072°45'410.5
2018-Feb-14 13:00N 41°14' W 072°40'511.0
2018-Feb-14 12:30N 41°14' W 072°33'611.3
2018-Feb-14 12:00N 41°15' W 072°25'4 7.9
2018-Feb-14 11:30N 41°15' W 072°20'2 4.4
2018-Feb-14 11:00N 41°15' W 072°23'2 4.8
2018-Feb-14 10:30N 41°14' W 072°26'3 5.4
2018-Feb-14 10:00N 41°14' W 072°30'0 0.9
2018-Feb-14 09:30N 41°14' W 072°30'0 0.3
2018-Feb-14 09:00N 41°14' W 072°30'1 1.4
2018-Feb-14 08:30N 41°13' W 072°31'1 1.5
2018-Feb-14 08:00N 41°14' W 072°32'1 2.8
2018-Feb-14 07:30N 41°14' W 072°34'3 6.4
2018-Feb-14 07:00N 41°14' W 072°38'4 7.3
2018-Feb-14 06:30N 41°13' W 072°43'  
Track history (hours):
 
Tides and Currents Weather Stations Pressure Air Temp Water Temp Dewpoint Dewpoint Depression Visibility Wind Speed Wind Dir Waves Ship Positions

William E.

Owner: Donjon Marine Co., Inc., Hillside, NJ. More information available from US FCC via Universal Licensing System and Coast Guard Vessel Documentation Center.

Last reported at 2018-Feb-14 13:20 UTC. Time now 2018-Feb-25 10:12 UTC.
Position N 41°13' W 072°45'.
Warning: this ship's position is 10 days out of date.

Type: Tug. MMSI: 367005710.

Date/timePositionNaut miles runAvg speedWind from/ knotsBaromVisibWave heightAir tempDewpointWater temp
2018-Feb-14 13:20N 41°13' W 072°45'410.5
2018-Feb-14 13:00N 41°14' W 072°40'511.0
2018-Feb-14 12:30N 41°14' W 072°33'611.3
2018-Feb-14 12:00N 41°15' W 072°25'4 7.9
2018-Feb-14 11:30N 41°15' W 072°20'2 4.4
2018-Feb-14 11:00N 41°15' W 072°23'2 4.8
2018-Feb-14 10:30N 41°14' W 072°26'3 5.4
2018-Feb-14 10:00N 41°14' W 072°30'0 0.9
2018-Feb-14 09:30N 41°14' W 072°30'0 0.3
2018-Feb-14 09:00N 41°14' W 072°30'1 1.4
2018-Feb-14 08:30N 41°13' W 072°31'1 1.5
2018-Feb-14 08:00N 41°14' W 072°32'1 2.8
2018-Feb-14 07:30N 41°14' W 072°34'3 6.4
2018-Feb-14 07:00N 41°14' W 072°38'4 7.3
2018-Feb-14 06:30N 41°13' W 072°43'  

Dump ship's entire track history